sensor_id;sensor_type;location;lat;lon;timestamp;temperature;humidity
14755;DHT22;7469;50.906;6.952;2023-03-31T00:00:31;12.30;99.90
14755;DHT22;7469;50.906;6.952;2023-03-31T00:03:01;12.40;99.90
14755;DHT22;7469;50.906;6.952;2023-03-31T00:05:36;12.30;99.90
14755;DHT22;7469;50.906;6.952;2023-03-31T00:08:04;12.30;99.90
14755;DHT22;7469;50.906;6.952;2023-03-31T00:10:33;12.40;99.90
14755;DHT22;7469;50.906;6.952;2023-03-31T00:13:01;12.30;99.90
14755;DHT22;7469;50.906;6.952;2023-03-31T00:15:29;12.40;99.90
14755;DHT22;7469;50.906;6.952;2023-03-31T00:17:58;12.40;99.90
14755;DHT22;7469;50.906;6.952;2023-03-31T00:20:28;12.30;99.90
14755;DHT22;7469;50.906;6.952;2023-03-31T00:22:59;12.40;99.90
14755;DHT22;7469;50.906;6.952;2023-03-31T00:25:27;12.30;99.90
14755;DHT22;7469;50.906;6.952;2023-03-31T00:27:55;12.40;99.90
14755;DHT22;7469;50.906;6.952;2023-03-31T00:30:23;12.40;99.90
14755;DHT22;7469;50.906;6.952;2023-03-31T00:32:51;12.40;99.90
14755;DHT22;7469;50.906;6.952;2023-03-31T00:35:19;12.40;99.90
14755;DHT22;7469;50.906;6.952;2023-03-31T00:37:48;12.40;99.90
14755;DHT22;7469;50.906;6.952;2023-03-31T00:40:16;12.40;99.90
14755;DHT22;7469;50.906;6.952;2023-03-31T00:42:45;12.50;99.90
14755;DHT22;7469;50.906;6.952;2023-03-31T00:45:25;12.50;99.90
14755;DHT22;7469;50.906;6.952;2023-03-31T00:48:00;12.40;99.90
14755;DHT22;7469;50.906;6.952;2023-03-31T00:50:32;12.40;99.90
14755;DHT22;7469;50.906;6.952;2023-03-31T00:53:07;12.40;99.90
14755;DHT22;7469;50.906;6.952;2023-03-31T00:55:40;12.40;99.90
14755;DHT22;7469;50.906;6.952;2023-03-31T00:58:10;12.40;99.90
14755;DHT22;7469;50.906;6.952;2023-03-31T01:00:40;12.40;99.90
14755;DHT22;7469;50.906;6.952;2023-03-31T01:03:09;12.30;99.90
14755;DHT22;7469;50.906;6.952;2023-03-31T01:05:43;12.30;99.90
14755;DHT22;7469;50.906;6.952;2023-03-31T01:08:15;12.30;99.90
14755;DHT22;7469;50.906;6.952;2023-03-31T01:10:49;12.20;99.90
14755;DHT22;7469;50.906;6.952;2023-03-31T01:13:18;12.20;99.90
14755;DHT22;7469;50.906;6.952;2023-03-31T01:15:47;12.10;99.90
14755;DHT22;7469;50.906;6.952;2023-03-31T01:18:15;12.10;99.90
14755;DHT22;7469;50.906;6.952;2023-03-31T01:21:03;12.10;99.90
14755;DHT22;7469;50.906;6.952;2023-03-31T01:23:51;12.10;99.90
14755;DHT22;7469;50.906;6.952;2023-03-31T01:26:41;12.00;99.90
14755;DHT22;7469;50.906;6.952;2023-03-31T01:29:34;12.00;99.90
14755;DHT22;7469;50.906;6.952;2023-03-31T01:32:45;12.00;99.90
14755;DHT22;7469;50.906;6.952;2023-03-31T01:35:36;12.00;99.90
14755;DHT22;7469;50.906;6.952;2023-03-31T01:41:31;12.00;99.90
14755;DHT22;7469;50.906;6.952;2023-03-31T01:44:07;12.00;99.90
14755;DHT22;7469;50.906;6.952;2023-03-31T01:46:42;12.00;99.90
14755;DHT22;7469;50.906;6.952;2023-03-31T01:49:19;12.00;99.90
14755;DHT22;7469;50.906;6.952;2023-03-31T01:51:50;12.00;99.90
14755;DHT22;7469;50.906;6.952;2023-03-31T01:54:22;12.10;99.90
14755;DHT22;7469;50.906;6.952;2023-03-31T01:56:58;12.10;99.90
14755;DHT22;7469;50.906;6.952;2023-03-31T01:59:29;12.10;99.90
14755;DHT22;7469;50.906;6.952;2023-03-31T02:02:06;12.10;99.90
14755;DHT22;7469;50.906;6.952;2023-03-31T02:04:37;12.10;99.90
14755;DHT22;7469;50.906;6.952;2023-03-31T02:07:12;12.10;99.90
14755;DHT22;7469;50.906;6.952;2023-03-31T02:09:46;12.10;99.90
14755;DHT22;7469;50.906;6.952;2023-03-31T02:12:18;12.10;99.90
14755;DHT22;7469;50.906;6.952;2023-03-31T02:14:49;12.10;99.90
14755;DHT22;7469;50.906;6.952;2023-03-31T02:17:21;12.10;99.90
14755;DHT22;7469;50.906;6.952;2023-03-31T02:19:58;12.10;99.90
14755;DHT22;7469;50.906;6.952;2023-03-31T02:22:32;12.00;99.90
14755;DHT22;7469;50.906;6.952;2023-03-31T02:25:04;12.00;99.90
14755;DHT22;7469;50.906;6.952;2023-03-31T02:27:36;11.90;99.90
14755;DHT22;7469;50.906;6.952;2023-03-31T02:30:07;12.00;99.90
14755;DHT22;7469;50.906;6.952;2023-03-31T02:32:37;11.90;99.90
14755;DHT22;7469;50.906;6.952;2023-03-31T02:35:08;11.90;99.90
14755;DHT22;7469;50.906;6.952;2023-03-31T02:37:38;11.90;99.90
14755;DHT22;7469;50.906;6.952;2023-03-31T02:40:10;11.90;99.90
14755;DHT22;7469;50.906;6.952;2023-03-31T02:42:41;11.90;99.90
14755;DHT22;7469;50.906;6.952;2023-03-31T02:45:37;11.80;99.90
14755;DHT22;7469;50.906;6.952;2023-03-31T02:48:10;11.80;99.90
14755;DHT22;7469;50.906;6.952;2023-03-31T02:53:47;11.80;99.90
14755;DHT22;7469;50.906;6.952;2023-03-31T02:56:31;11.80;99.90
14755;DHT22;7469;50.906;6.952;2023-03-31T02:59:28;11.70;99.90
14755;DHT22;7469;50.906;6.952;2023-03-31T03:02:09;11.70;99.90
14755;DHT22;7469;50.906;6.952;2023-03-31T03:04:57;11.70;99.90
14755;DHT22;7469;50.906;6.952;2023-03-31T03:07:34;11.60;99.90
14755;DHT22;7469;50.906;6.952;2023-03-31T03:10:06;11.60;99.90
14755;DHT22;7469;50.906;6.952;2023-03-31T03:12:41;11.60;99.90
14755;DHT22;7469;50.906;6.952;2023-03-31T03:15:17;11.60;99.90
14755;DHT22;7469;50.906;6.952;2023-03-31T03:17:48;11.50;99.90
14755;DHT22;7469;50.906;6.952;2023-03-31T03:20:19;11.60;99.90
14755;DHT22;7469;50.906;6.952;2023-03-31T03:22:47;11.60;99.90
14755;DHT22;7469;50.906;6.952;2023-03-31T03:25:16;11.60;99.90
14755;DHT22;7469;50.906;6.952;2023-03-31T03:27:46;11.60;99.90
14755;DHT22;7469;50.906;6.952;2023-03-31T03:30:16;11.60;99.90
14755;DHT22;7469;50.906;6.952;2023-03-31T03:32:43;11.60;99.90
14755;DHT22;7469;50.906;6.952;2023-03-31T03:35:12;11.60;99.90
14755;DHT22;7469;50.906;6.952;2023-03-31T03:37:40;11.60;99.90
14755;DHT22;7469;50.906;6.952;2023-03-31T03:40:09;11.60;99.90
14755;DHT22;7469;50.906;6.952;2023-03-31T03:42:37;11.70;99.90
14755;DHT22;7469;50.906;6.952;2023-03-31T03:45:06;11.60;99.90
14755;DHT22;7469;50.906;6.952;2023-03-31T03:47:35;11.70;99.90
14755;DHT22;7469;50.906;6.952;2023-03-31T03:50:04;11.70;99.90
14755;DHT22;7469;50.906;6.952;2023-03-31T03:52:32;11.70;99.90
14755;DHT22;7469;50.906;6.952;2023-03-31T03:55:00;11.70;99.90
14755;DHT22;7469;50.906;6.952;2023-03-31T03:57:29;11.70;99.90
14755;DHT22;7469;50.906;6.952;2023-03-31T03:59:57;11.70;99.90
14755;DHT22;7469;50.906;6.952;2023-03-31T04:02:25;11.70;99.90
14755;DHT22;7469;50.906;6.952;2023-03-31T04:04:55;11.80;99.90
14755;DHT22;7469;50.906;6.952;2023-03-31T04:07:23;11.80;99.90
14755;DHT22;7469;50.906;6.952;2023-03-31T04:09:51;11.80;99.90
14755;DHT22;7469;50.906;6.952;2023-03-31T04:12:19;11.80;99.90
14755;DHT22;7469;50.906;6.952;2023-03-31T04:14:47;11.80;99.90
14755;DHT22;7469;50.906;6.952;2023-03-31T04:17:15;11.80;99.90
14755;DHT22;7469;50.906;6.952;2023-03-31T04:19:43;11.80;99.90
14755;DHT22;7469;50.906;6.952;2023-03-31T04:22:17;11.80;99.90
14755;DHT22;7469;50.906;6.952;2023-03-31T04:24:46;11.80;99.90
14755;DHT22;7469;50.906;6.952;2023-03-31T04:27:18;11.70;99.90
14755;DHT22;7469;50.906;6.952;2023-03-31T04:29:46;11.70;99.90
14755;DHT22;7469;50.906;6.952;2023-03-31T04:32:20;11.70;99.90
14755;DHT22;7469;50.906;6.952;2023-03-31T04:34:48;11.70;99.90
14755;DHT22;7469;50.906;6.952;2023-03-31T04:37:18;11.60;99.90
14755;DHT22;7469;50.906;6.952;2023-03-31T04:39:46;11.60;99.90
14755;DHT22;7469;50.906;6.952;2023-03-31T04:42:16;11.60;99.90
14755;DHT22;7469;50.906;6.952;2023-03-31T04:44:44;11.60;99.90
14755;DHT22;7469;50.906;6.952;2023-03-31T04:47:12;11.50;99.90
14755;DHT22;7469;50.906;6.952;2023-03-31T04:49:40;11.50;99.90
14755;DHT22;7469;50.906;6.952;2023-03-31T04:52:08;11.50;99.90
14755;DHT22;7469;50.906;6.952;2023-03-31T04:54:37;11.50;99.90
14755;DHT22;7469;50.906;6.952;2023-03-31T04:57:05;11.50;99.90
14755;DHT22;7469;50.906;6.952;2023-03-31T04:59:35;11.40;99.90
14755;DHT22;7469;50.906;6.952;2023-03-31T05:02:03;11.40;99.90
14755;DHT22;7469;50.906;6.952;2023-03-31T05:04:31;11.40;99.90
14755;DHT22;7469;50.906;6.952;2023-03-31T05:06:59;11.40;99.90
14755;DHT22;7469;50.906;6.952;2023-03-31T05:09:27;11.40;99.90
14755;DHT22;7469;50.906;6.952;2023-03-31T05:11:57;11.40;99.90
14755;DHT22;7469;50.906;6.952;2023-03-31T05:14:25;11.40;99.90
14755;DHT22;7469;50.906;6.952;2023-03-31T05:16:54;11.40;99.90
14755;DHT22;7469;50.906;6.952;2023-03-31T05:19:24;11.40;99.90
14755;DHT22;7469;50.906;6.952;2023-03-31T05:21:52;11.50;99.90
14755;DHT22;7469;50.906;6.952;2023-03-31T05:24:20;11.50;99.90
14755;DHT22;7469;50.906;6.952;2023-03-31T05:26:49;11.50;99.90
14755;DHT22;7469;50.906;6.952;2023-03-31T05:29:20;11.50;99.90
14755;DHT22;7469;50.906;6.952;2023-03-31T05:31:48;11.50;99.90
14755;DHT22;7469;50.906;6.952;2023-03-31T05:34:17;11.60;99.90
14755;DHT22;7469;50.906;6.952;2023-03-31T05:36:45;11.60;99.90
14755;DHT22;7469;50.906;6.952;2023-03-31T05:39:17;11.60;99.90
14755;DHT22;7469;50.906;6.952;2023-03-31T05:41:45;11.60;99.90
14755;DHT22;7469;50.906;6.952;2023-03-31T05:44:13;11.60;99.90
14755;DHT22;7469;50.906;6.952;2023-03-31T05:46:43;11.60;99.90
14755;DHT22;7469;50.906;6.952;2023-03-31T05:49:11;11.60;99.90
14755;DHT22;7469;50.906;6.952;2023-03-31T05:51:41;11.60;99.90
14755;DHT22;7469;50.906;6.952;2023-03-31T05:54:10;11.60;99.90
14755;DHT22;7469;50.906;6.952;2023-03-31T05:56:39;11.70;99.90
14755;DHT22;7469;50.906;6.952;2023-03-31T05:59:07;11.70;99.90
14755;DHT22;7469;50.906;6.952;2023-03-31T06:01:35;11.70;99.90
14755;DHT22;7469;50.906;6.952;2023-03-31T06:04:05;11.70;99.90
14755;DHT22;7469;50.906;6.952;2023-03-31T06:06:33;11.70;99.90
14755;DHT22;7469;50.906;6.952;2023-03-31T06:09:04;11.70;99.90
14755;DHT22;7469;50.906;6.952;2023-03-31T06:11:32;11.80;99.90
14755;DHT22;7469;50.906;6.952;2023-03-31T06:14:00;11.80;99.90
14755;DHT22;7469;50.906;6.952;2023-03-31T06:16:28;11.80;99.90
14755;DHT22;7469;50.906;6.952;2023-03-31T06:18:56;11.80;99.90
14755;DHT22;7469;50.906;6.952;2023-03-31T06:21:26;11.80;99.90
14755;DHT22;7469;50.906;6.952;2023-03-31T06:23:54;11.80;99.90
14755;DHT22;7469;50.906;6.952;2023-03-31T06:26:24;11.80;99.90
14755;DHT22;7469;50.906;6.952;2023-03-31T06:28:52;11.80;99.90
14755;DHT22;7469;50.906;6.952;2023-03-31T06:31:23;11.80;99.90
14755;DHT22;7469;50.906;6.952;2023-03-31T06:33:51;11.80;99.90
14755;DHT22;7469;50.906;6.952;2023-03-31T06:36:20;11.80;99.90
14755;DHT22;7469;50.906;6.952;2023-03-31T06:38:50;11.70;99.90
14755;DHT22;7469;50.906;6.952;2023-03-31T06:41:18;11.70;99.90
14755;DHT22;7469;50.906;6.952;2023-03-31T06:43:48;11.70;99.90
14755;DHT22;7469;50.906;6.952;2023-03-31T06:46:16;11.70;99.90
14755;DHT22;7469;50.906;6.952;2023-03-31T06:48:44;11.70;99.90
14755;DHT22;7469;50.906;6.952;2023-03-31T06:51:12;11.70;99.90
14755;DHT22;7469;50.906;6.952;2023-03-31T06:53:40;11.80;99.90
14755;DHT22;7469;50.906;6.952;2023-03-31T06:56:09;11.80;99.90
14755;DHT22;7469;50.906;6.952;2023-03-31T06:58:37;11.90;99.90
14755;DHT22;7469;50.906;6.952;2023-03-31T07:01:05;11.90;99.90
14755;DHT22;7469;50.906;6.952;2023-03-31T07:03:34;12.00;99.90
14755;DHT22;7469;50.906;6.952;2023-03-31T07:06:02;12.10;99.90
14755;DHT22;7469;50.906;6.952;2023-03-31T07:08:31;12.20;99.90
14755;DHT22;7469;50.906;6.952;2023-03-31T07:11:00;12.30;99.90
14755;DHT22;7469;50.906;6.952;2023-03-31T07:13:29;12.40;99.90
14755;DHT22;7469;50.906;6.952;2023-03-31T07:15:57;12.50;99.90
14755;DHT22;7469;50.906;6.952;2023-03-31T07:18:25;12.60;99.90
14755;DHT22;7469;50.906;6.952;2023-03-31T07:21:00;12.60;99.90
14755;DHT22;7469;50.906;6.952;2023-03-31T07:23:31;12.70;99.90
14755;DHT22;7469;50.906;6.952;2023-03-31T07:25:59;12.70;99.90
14755;DHT22;7469;50.906;6.952;2023-03-31T07:28:30;12.80;99.90
14755;DHT22;7469;50.906;6.952;2023-03-31T07:30:58;12.80;99.90
14755;DHT22;7469;50.906;6.952;2023-03-31T07:33:27;12.80;99.90
14755;DHT22;7469;50.906;6.952;2023-03-31T07:35:55;12.90;99.90
14755;DHT22;7469;50.906;6.952;2023-03-31T07:38:38;13.00;99.90
14755;DHT22;7469;50.906;6.952;2023-03-31T07:41:09;13.00;99.90
14755;DHT22;7469;50.906;6.952;2023-03-31T07:43:40;13.00;99.90
14755;DHT22;7469;50.906;6.952;2023-03-31T07:46:14;13.10;99.90
14755;DHT22;7469;50.906;6.952;2023-03-31T07:48:42;13.20;99.90
14755;DHT22;7469;50.906;6.952;2023-03-31T07:51:12;13.30;99.90
14755;DHT22;7469;50.906;6.952;2023-03-31T07:53:40;13.40;99.90
14755;DHT22;7469;50.906;6.952;2023-03-31T07:56:08;13.50;99.90
14755;DHT22;7469;50.906;6.952;2023-03-31T07:58:36;13.60;99.90
14755;DHT22;7469;50.906;6.952;2023-03-31T08:01:05;13.70;99.90
14755;DHT22;7469;50.906;6.952;2023-03-31T08:03:34;13.80;99.90
14755;DHT22;7469;50.906;6.952;2023-03-31T08:06:02;13.90;99.90
14755;DHT22;7469;50.906;6.952;2023-03-31T08:08:31;14.00;99.90
14755;DHT22;7469;50.906;6.952;2023-03-31T08:10:59;14.00;99.90
14755;DHT22;7469;50.906;6.952;2023-03-31T08:13:27;14.10;99.90
14755;DHT22;7469;50.906;6.952;2023-03-31T08:15:55;14.10;99.90
14755;DHT22;7469;50.906;6.952;2023-03-31T08:18:24;14.20;99.90
14755;DHT22;7469;50.906;6.952;2023-03-31T08:20:52;14.30;99.90
14755;DHT22;7469;50.906;6.952;2023-03-31T08:23:20;14.30;99.90
14755;DHT22;7469;50.906;6.952;2023-03-31T08:25:48;14.30;99.90
14755;DHT22;7469;50.906;6.952;2023-03-31T08:28:16;14.30;99.90
14755;DHT22;7469;50.906;6.952;2023-03-31T08:30:44;14.40;99.90
14755;DHT22;7469;50.906;6.952;2023-03-31T08:33:12;14.50;99.90
14755;DHT22;7469;50.906;6.952;2023-03-31T08:35:42;14.60;99.90
14755;DHT22;7469;50.906;6.952;2023-03-31T08:38:11;14.70;99.90
14755;DHT22;7469;50.906;6.952;2023-03-31T08:40:40;14.70;99.90
14755;DHT22;7469;50.906;6.952;2023-03-31T08:43:12;14.70;99.90
14755;DHT22;7469;50.906;6.952;2023-03-31T08:45:45;14.80;99.90
14755;DHT22;7469;50.906;6.952;2023-03-31T08:48:20;14.90;99.90
14755;DHT22;7469;50.906;6.952;2023-03-31T08:50:56;15.10;99.90
14755;DHT22;7469;50.906;6.952;2023-03-31T08:53:27;15.20;99.90
14755;DHT22;7469;50.906;6.952;2023-03-31T08:55:57;15.30;99.90
14755;DHT22;7469;50.906;6.952;2023-03-31T08:58:34;15.40;99.90
14755;DHT22;7469;50.906;6.952;2023-03-31T09:01:10;15.50;99.90
14755;DHT22;7469;50.906;6.952;2023-03-31T09:03:49;15.60;99.90
14755;DHT22;7469;50.906;6.952;2023-03-31T09:06:32;15.80;99.90
14755;DHT22;7469;50.906;6.952;2023-03-31T09:09:09;16.10;99.90
14755;DHT22;7469;50.906;6.952;2023-03-31T09:11:41;16.30;99.90
14755;DHT22;7469;50.906;6.952;2023-03-31T09:14:17;16.60;99.90
14755;DHT22;7469;50.906;6.952;2023-03-31T09:16:55;16.90;99.90
14755;DHT22;7469;50.906;6.952;2023-03-31T09:19:33;17.00;99.90
14755;DHT22;7469;50.906;6.952;2023-03-31T09:22:08;17.10;99.90
14755;DHT22;7469;50.906;6.952;2023-03-31T09:24:45;17.20;99.90
14755;DHT22;7469;50.906;6.952;2023-03-31T09:27:14;17.40;99.90
14755;DHT22;7469;50.906;6.952;2023-03-31T09:29:45;17.70;99.90
14755;DHT22;7469;50.906;6.952;2023-03-31T09:32:16;18.20;99.90
14755;DHT22;7469;50.906;6.952;2023-03-31T09:34:46;18.40;99.90
14755;DHT22;7469;50.906;6.952;2023-03-31T09:37:15;18.40;99.90
14755;DHT22;7469;50.906;6.952;2023-03-31T09:39:45;18.30;99.90
14755;DHT22;7469;50.906;6.952;2023-03-31T09:42:13;17.90;99.90
14755;DHT22;7469;50.906;6.952;2023-03-31T09:44:45;17.30;99.90
14755;DHT22;7469;50.906;6.952;2023-03-31T09:47:24;16.80;99.90
14755;DHT22;7469;50.906;6.952;2023-03-31T09:49:55;16.30;99.90
14755;DHT22;7469;50.906;6.952;2023-03-31T09:52:28;15.90;99.90
14755;DHT22;7469;50.906;6.952;2023-03-31T09:54:59;16.00;99.90
14755;DHT22;7469;50.906;6.952;2023-03-31T09:57:29;16.40;99.90
14755;DHT22;7469;50.906;6.952;2023-03-31T10:00:02;17.30;99.90
14755;DHT22;7469;50.906;6.952;2023-03-31T10:02:35;18.40;99.90
14755;DHT22;7469;50.906;6.952;2023-03-31T10:05:23;19.30;99.90
14755;DHT22;7469;50.906;6.952;2023-03-31T10:08:17;19.70;99.90
14755;DHT22;7469;50.906;6.952;2023-03-31T10:11:06;19.60;99.90
14755;DHT22;7469;50.906;6.952;2023-03-31T10:13:43;19.10;99.90
14755;DHT22;7469;50.906;6.952;2023-03-31T10:16:13;18.80;99.90
14755;DHT22;7469;50.906;6.952;2023-03-31T10:18:42;18.50;99.90
14755;DHT22;7469;50.906;6.952;2023-03-31T10:21:20;18.30;99.90
14755;DHT22;7469;50.906;6.952;2023-03-31T10:23:50;17.90;99.90
14755;DHT22;7469;50.906;6.952;2023-03-31T10:26:21;17.70;99.90
14755;DHT22;7469;50.906;6.952;2023-03-31T10:28:50;17.70;99.90
14755;DHT22;7469;50.906;6.952;2023-03-31T10:31:25;18.00;99.90
14755;DHT22;7469;50.906;6.952;2023-03-31T10:33:55;18.80;99.90
14755;DHT22;7469;50.906;6.952;2023-03-31T10:36:25;19.70;99.90
14755;DHT22;7469;50.906;6.952;2023-03-31T10:38:57;20.40;99.90
14755;DHT22;7469;50.906;6.952;2023-03-31T10:41:28;21.50;98.80
14755;DHT22;7469;50.906;6.952;2023-03-31T10:43:57;22.70;96.40
14755;DHT22;7469;50.906;6.952;2023-03-31T10:46:41;23.80;92.60
14755;DHT22;7469;50.906;6.952;2023-03-31T10:49:23;24.10;85.00
14755;DHT22;7469;50.906;6.952;2023-03-31T10:51:53;24.00;78.00
14755;DHT22;7469;50.906;6.952;2023-03-31T10:54:23;23.70;75.40
14755;DHT22;7469;50.906;6.952;2023-03-31T10:56:53;23.00;73.10
14755;DHT22;7469;50.906;6.952;2023-03-31T10:59:40;22.20;74.30
14755;DHT22;7469;50.906;6.952;2023-03-31T11:02:25;21.30;76.70
14755;DHT22;7469;50.906;6.952;2023-03-31T11:05:04;20.50;78.80
14755;DHT22;7469;50.906;6.952;2023-03-31T11:07:42;19.80;80.00
14755;DHT22;7469;50.906;6.952;2023-03-31T11:10:28;19.30;82.30
14755;DHT22;7469;50.906;6.952;2023-03-31T11:13:03;18.80;84.10
14755;DHT22;7469;50.906;6.952;2023-03-31T11:15:39;18.30;86.00
14755;DHT22;7469;50.906;6.952;2023-03-31T11:18:24;18.00;88.10
14755;DHT22;7469;50.906;6.952;2023-03-31T11:21:00;17.70;89.80
14755;DHT22;7469;50.906;6.952;2023-03-31T11:23:39;17.60;90.60
14755;DHT22;7469;50.906;6.952;2023-03-31T11:26:12;17.50;91.30
14755;DHT22;7469;50.906;6.952;2023-03-31T11:28:59;17.50;91.70
14755;DHT22;7469;50.906;6.952;2023-03-31T11:31:40;17.50;92.00
14755;DHT22;7469;50.906;6.952;2023-03-31T11:34:32;17.30;92.40
14755;DHT22;7469;50.906;6.952;2023-03-31T11:37:17;17.10;92.90
14755;DHT22;7469;50.906;6.952;2023-03-31T11:39:56;17.00;93.60
14755;DHT22;7469;50.906;6.952;2023-03-31T11:42:34;16.80;94.10
14755;DHT22;7469;50.906;6.952;2023-03-31T11:45:12;16.70;94.60
14755;DHT22;7469;50.906;6.952;2023-03-31T11:47:44;16.60;95.20
14755;DHT22;7469;50.906;6.952;2023-03-31T11:50:16;16.60;95.60
14755;DHT22;7469;50.906;6.952;2023-03-31T11:52:51;16.60;95.80
14755;DHT22;7469;50.906;6.952;2023-03-31T11:55:24;16.50;96.00
14755;DHT22;7469;50.906;6.952;2023-03-31T11:57:58;16.50;96.30
14755;DHT22;7469;50.906;6.952;2023-03-31T12:00:31;16.50;96.50
14755;DHT22;7469;50.906;6.952;2023-03-31T12:03:06;16.40;96.50
14755;DHT22;7469;50.906;6.952;2023-03-31T12:05:42;16.30;96.70
14755;DHT22;7469;50.906;6.952;2023-03-31T12:08:15;16.20;97.10
14755;DHT22;7469;50.906;6.952;2023-03-31T12:10:46;16.10;97.40
14755;DHT22;7469;50.906;6.952;2023-03-31T12:13:33;16.00;97.70
14755;DHT22;7469;50.906;6.952;2023-03-31T12:16:07;16.00;98.10
14755;DHT22;7469;50.906;6.952;2023-03-31T12:18:40;16.00;98.50
14755;DHT22;7469;50.906;6.952;2023-03-31T12:21:10;16.10;98.80
14755;DHT22;7469;50.906;6.952;2023-03-31T12:23:42;16.30;98.90
14755;DHT22;7469;50.906;6.952;2023-03-31T12:26:22;16.50;99.00
14755;DHT22;7469;50.906;6.952;2023-03-31T12:29:02;16.70;99.00
14755;DHT22;7469;50.906;6.952;2023-03-31T12:31:33;17.00;98.70
14755;DHT22;7469;50.906;6.952;2023-03-31T12:34:07;17.30;98.40
14755;DHT22;7469;50.906;6.952;2023-03-31T12:36:46;17.50;97.90
14755;DHT22;7469;50.906;6.952;2023-03-31T12:39:28;17.60;97.50
14755;DHT22;7469;50.906;6.952;2023-03-31T12:42:10;17.60;96.90
14755;DHT22;7469;50.906;6.952;2023-03-31T12:44:49;17.70;96.80
14755;DHT22;7469;50.906;6.952;2023-03-31T12:47:49;17.80;95.40
14755;DHT22;7469;50.906;6.952;2023-03-31T12:50:33;17.70;94.90
14755;DHT22;7469;50.906;6.952;2023-03-31T12:53:11;17.60;94.50
14755;DHT22;7469;50.906;6.952;2023-03-31T12:55:43;17.50;94.80
14755;DHT22;7469;50.906;6.952;2023-03-31T12:58:37;17.40;95.00
14755;DHT22;7469;50.906;6.952;2023-03-31T13:01:09;17.30;95.00
14755;DHT22;7469;50.906;6.952;2023-03-31T13:03:43;17.20;95.40
14755;DHT22;7469;50.906;6.952;2023-03-31T13:06:47;17.10;95.80
14755;DHT22;7469;50.906;6.952;2023-03-31T13:09:40;17.00;96.30
14755;DHT22;7469;50.906;6.952;2023-03-31T13:12:13;16.90;97.20
14755;DHT22;7469;50.906;6.952;2023-03-31T13:14:43;16.70;97.80
14755;DHT22;7469;50.906;6.952;2023-03-31T13:17:26;16.60;98.60
14755;DHT22;7469;50.906;6.952;2023-03-31T13:19:56;16.40;99.40
14755;DHT22;7469;50.906;6.952;2023-03-31T13:22:44;16.10;99.90
14755;DHT22;7469;50.906;6.952;2023-03-31T13:25:42;15.90;99.90
14755;DHT22;7469;50.906;6.952;2023-03-31T13:31:08;15.60;99.90
14755;DHT22;7469;50.906;6.952;2023-03-31T13:33:42;15.60;99.90
14755;DHT22;7469;50.906;6.952;2023-03-31T13:39:29;15.70;99.90
14755;DHT22;7469;50.906;6.952;2023-03-31T13:42:13;15.80;99.90
14755;DHT22;7469;50.906;6.952;2023-03-31T13:44:55;15.90;99.90
14755;DHT22;7469;50.906;6.952;2023-03-31T13:47:37;16.00;99.90
14755;DHT22;7469;50.906;6.952;2023-03-31T13:50:20;16.10;99.90
14755;DHT22;7469;50.906;6.952;2023-03-31T13:52:56;16.10;99.90
14755;DHT22;7469;50.906;6.952;2023-03-31T13:56:09;16.10;99.90
14755;DHT22;7469;50.906;6.952;2023-03-31T13:58:51;16.20;99.90
14755;DHT22;7469;50.906;6.952;2023-03-31T14:01:45;16.30;99.90
14755;DHT22;7469;50.906;6.952;2023-03-31T14:07:31;16.50;99.90
14755;DHT22;7469;50.906;6.952;2023-03-31T14:10:00;16.60;99.90
14755;DHT22;7469;50.906;6.952;2023-03-31T14:12:33;16.80;99.90
14755;DHT22;7469;50.906;6.952;2023-03-31T14:15:02;16.90;99.90
14755;DHT22;7469;50.906;6.952;2023-03-31T14:17:34;16.90;99.90
14755;DHT22;7469;50.906;6.952;2023-03-31T14:20:14;16.90;99.90
14755;DHT22;7469;50.906;6.952;2023-03-31T14:22:51;16.80;99.90
14755;DHT22;7469;50.906;6.952;2023-03-31T14:25:33;16.70;99.90
14755;DHT22;7469;50.906;6.952;2023-03-31T14:28:15;16.60;99.90
14755;DHT22;7469;50.906;6.952;2023-03-31T14:30:52;16.50;99.60
14755;DHT22;7469;50.906;6.952;2023-03-31T14:33:32;16.30;99.40
14755;DHT22;7469;50.906;6.952;2023-03-31T14:36:09;16.40;99.50
14755;DHT22;7469;50.906;6.952;2023-03-31T14:38:38;16.50;99.50
14755;DHT22;7469;50.906;6.952;2023-03-31T14:41:15;16.50;99.30
14755;DHT22;7469;50.906;6.952;2023-03-31T14:43:49;16.60;99.00
14755;DHT22;7469;50.906;6.952;2023-03-31T14:46:19;16.70;98.70
14755;DHT22;7469;50.906;6.952;2023-03-31T14:48:49;16.70;98.40
14755;DHT22;7469;50.906;6.952;2023-03-31T14:51:22;16.70;98.20
14755;DHT22;7469;50.906;6.952;2023-03-31T14:53:55;16.70;98.00
14755;DHT22;7469;50.906;6.952;2023-03-31T14:56:30;16.60;97.30
14755;DHT22;7469;50.906;6.952;2023-03-31T14:59:02;16.50;97.30
14755;DHT22;7469;50.906;6.952;2023-03-31T15:01:34;16.40;97.10
14755;DHT22;7469;50.906;6.952;2023-03-31T15:04:06;16.40;97.30
14755;DHT22;7469;50.906;6.952;2023-03-31T15:06:36;16.30;97.20
14755;DHT22;7469;50.906;6.952;2023-03-31T15:09:06;16.20;97.20
14755;DHT22;7469;50.906;6.952;2023-03-31T15:11:36;16.10;97.20
14755;DHT22;7469;50.906;6.952;2023-03-31T15:14:08;16.10;97.30
14755;DHT22;7469;50.906;6.952;2023-03-31T15:16:40;16.00;97.50
14755;DHT22;7469;50.906;6.952;2023-03-31T15:19:14;15.90;97.60
14755;DHT22;7469;50.906;6.952;2023-03-31T15:21:43;15.80;97.60
14755;DHT22;7469;50.906;6.952;2023-03-31T15:24:12;15.70;97.90
14755;DHT22;7469;50.906;6.952;2023-03-31T15:26:44;15.70;98.10
14755;DHT22;7469;50.906;6.952;2023-03-31T15:29:18;15.60;98.30
14755;DHT22;7469;50.906;6.952;2023-03-31T15:31:48;15.60;98.50
14755;DHT22;7469;50.906;6.952;2023-03-31T15:34:20;15.50;98.60
14755;DHT22;7469;50.906;6.952;2023-03-31T15:36:53;15.40;98.60
14755;DHT22;7469;50.906;6.952;2023-03-31T15:39:22;15.40;98.80
14755;DHT22;7469;50.906;6.952;2023-03-31T15:41:51;15.30;99.00
14755;DHT22;7469;50.906;6.952;2023-03-31T15:44:37;15.20;99.20
14755;DHT22;7469;50.906;6.952;2023-03-31T15:47:12;15.20;99.40
14755;DHT22;7469;50.906;6.952;2023-03-31T15:49:50;15.20;99.60
14755;DHT22;7469;50.906;6.952;2023-03-31T15:52:26;15.10;99.70
14755;DHT22;7469;50.906;6.952;2023-03-31T15:54:54;15.10;99.80
14755;DHT22;7469;50.906;6.952;2023-03-31T15:57:30;15.00;99.90
14755;DHT22;7469;50.906;6.952;2023-03-31T16:00:01;15.00;99.90
14755;DHT22;7469;50.906;6.952;2023-03-31T16:02:39;15.00;99.90
14755;DHT22;7469;50.906;6.952;2023-03-31T16:05:22;15.00;99.90
14755;DHT22;7469;50.906;6.952;2023-03-31T16:08:01;15.00;99.90
14755;DHT22;7469;50.906;6.952;2023-03-31T16:10:29;15.00;99.90
14755;DHT22;7469;50.906;6.952;2023-03-31T16:13:01;15.00;99.90
14755;DHT22;7469;50.906;6.952;2023-03-31T16:15:33;15.00;99.90
14755;DHT22;7469;50.906;6.952;2023-03-31T16:18:05;14.90;99.90
14755;DHT22;7469;50.906;6.952;2023-03-31T16:20:36;14.80;99.90
14755;DHT22;7469;50.906;6.952;2023-03-31T16:23:13;14.80;99.90
14755;DHT22;7469;50.906;6.952;2023-03-31T16:25:42;14.70;99.90
14755;DHT22;7469;50.906;6.952;2023-03-31T16:28:14;14.60;99.90
14755;DHT22;7469;50.906;6.952;2023-03-31T16:30:44;14.60;99.90
14755;DHT22;7469;50.906;6.952;2023-03-31T16:33:14;14.50;99.90
14755;DHT22;7469;50.906;6.952;2023-03-31T16:35:44;14.50;99.90
14755;DHT22;7469;50.906;6.952;2023-03-31T16:38:14;14.50;99.90